Gibbs, Arkansas
Current Conditions -  °F | °C
As of 8:53 AM on Wednesday 26 Nov 2014 (Local Time) from KMWT Reporting Station
Clear Clear  
Wind Chill: 35°   Ceiling: Unl
Heat Index: 35°   Visibility: 10mi
Dew Point: 31°   Wind: 3mph
Humidity: 85%   Direction: 340°NNW
Pressure: 30.02"   Gusts: NA
Location:  34.668°N, 93.6648°W
Report Text: KMWT 261453Z AUTO 34003KT 10SM CLR 02/M01 A3002 RMK AO2 SLP178 T00171006 53004
Loading
Personal Weather Stations






























Interactive Weather Map New forecast layout! Learn more

10-Day Weather Forecast

Advertisements
Track Severe Weather on mobile